Stacja Pogody
Warszawa Praga-Północ

Szerokość 52°15'43"N Długość 21°01'22"E Wysokość 110m n.p.m.


289 dzień roku.   Do końca pozostalo 76 dni.   Od wczoraj ubyło 4 min. i 2 sek. dnia.
Wschód Słońca 07:02 Górowanie Słońca 12:21 Zachód Słońca 17:41 waga
Data juliańska 2458408.921 Odległość Słońca 149067910 km Średn. kątowa Słońca 0,321°
Wschód Księżyca 14:23 Zachód Księżyca 22:43 Wiek Księżyca 7 dni Moon
Widoczność Księżyca 45,62% Odległość Księżyca 404273 km Średn. kątowa Księżyca 0,296°
Dzień krótszy od najdłuższego o: 06:08 Długość dnia 10:39 Imieniny Gawła, Ambrożego



  Aktualizacja: 16-10-2018 10:06:16
TEMPERATURA
Aktualnie: 13.1°C ↑↑
Temperatura odczuwalna:13.1°C
Punkt rosy6.4°C
WIATR
Średnia prędkość: 1.1km/h ↑
Prędkość w podmuchach:2.5km/h
Przepływ w ciągu doby:74.7km
Kierunek wiatru:315°
CIŚNIENIE
Względne:1023.3hPa
Trend ciśnienia:powolny wzrost
WILGOTNOŚĆ
Wilgotność względna: 65% ↓
Podstawa chmur2871m
DESZCZ
W ostatniej godzinie: 0.0mm
Dzisiaj:0.0mm
W tym miesiącu:1.2mm
METAR
EPWA 160730Z 16003KT 110V190 CAVOK 12/07 Q1022 NOSIG
Ostrzeżenia burzowe
Prognoza 12-to godzinna (prawdopodobieństwo 75%):   Stabilna, dobra pogoda prognoza





a  a